Time;durP1;ratioP1;P1;durP2;ratioP2;P2;SDS_P1;SDS_P2;PMS_P1;PMS_P2;Temp;Humidity;BMP_temperature;BMP_pressure;BME280_temperature;BME280_humidity;BME280_pressure;Samples;Min_cycle;Max_cycle;Signal;HPM_P1;HPM_P2
2022/12/01 00:01:58;;;;;;;;;;;7.10;90.00;;;;;;9183264;19;20022;-67
2022/12/01 00:05:04;;;;;;;88.87;27.57;;;7.10;90.00;;;;;;9185744;19;19923;-67
2022/12/01 00:08:09;;;;;;;90.18;29.15;;;7.10;90.00;;;;;;9183710;19;20361;-68
2022/12/01 00:11:11;;;;;;;88.18;25.60;;;7.20;90.00;;;;;;9183479;19;20084;-68
2022/12/01 00:14:15;;;;;;;96.47;26.70;;;7.10;90.00;;;;;;9185754;19;20019;-66
2022/12/01 00:17:19;;;;;;;93.88;29.08;;;7.20;90.00;;;;;;9183526;19;20465;-67
2022/12/01 00:20:24;;;;;;;;;;;7.10;90.00;;;;;;9182217;19;20034;-67
2022/12/01 00:23:28;;;;;;;90.03;25.10;;;7.10;90.10;;;;;;9183565;19;19914;-67
2022/12/01 00:26:32;;;;;;;89.22;25.02;;;7.10;90.00;;;;;;9182855;19;20025;-68
2022/12/01 00:29:36;;;;;;;88.03;28.20;;;7.20;90.00;;;;;;9183302;19;20018;-67
2022/12/01 00:32:40;;;;;;;77.78;26.67;;;7.10;90.10;;;;;;9184477;19;20046;-67
2022/12/01 00:35:46;;;;;;;75.78;26.05;;;7.10;90.00;;;;;;9184065;19;20018;-67
2022/12/01 00:38:53;;;;;;;80.47;25.48;;;7.10;90.00;;;;;;9181237;19;20015;-67
2022/12/01 00:41:57;;;;;;;76.78;25.30;;;7.10;90.00;;;;;;9184051;19;20090;-68
2022/12/01 00:45:01;;;;;;;87.70;26.35;;;7.10;90.00;;;;;;9185022;19;20038;-67
2022/12/01 00:48:04;;;;;;;70.85;24.33;;;7.10;90.00;;;;;;9183992;19;20022;-69
2022/12/01 00:51:10;;;;;;;71.00;24.27;;;7.10;90.00;;;;;;9182987;19;20085;-68
2022/12/01 00:54:14;;;;;;;76.97;24.70;;;7.10;90.00;;;;;;9184159;19;20048;-67
2022/12/01 00:57:18;;;;;;;73.90;25.00;;;7.10;90.00;;;;;;9183446;19;20070;-68
2022/12/01 01:00:22;;;;;;;71.40;23.55;;;7.10;90.00;;;;;;9184890;19;20464;-67
2022/12/01 01:03:26;;;;;;;;;;;7.10;90.00;;;;;;9182407;19;20006;-67
2022/12/01 01:06:31;;;;;;;83.95;25.73;;;7.10;90.00;;;;;;9182837;19;20292;-66
2022/12/01 01:09:35;;;;;;;85.53;26.35;;;7.10;90.00;;;;;;9182779;19;20022;-67
2022/12/01 01:12:39;;;;;;;;;;;7.10;90.00;;;;;;9182257;19;20071;-68
2022/12/01 01:15:43;;;;;;;82.25;24.67;;;7.10;90.00;;;;;;9182878;19;19918;-67
2022/12/01 01:18:47;;;;;;;82.88;26.50;;;7.10;90.00;;;;;;9178424;19;20352;-67
2022/12/01 01:21:52;;;;;;;92.47;29.60;;;7.10;90.00;;;;;;9182005;19;20038;-67
2022/12/01 01:24:56;;;;;;;101.20;29.10;;;7.10;90.00;;;;;;9180712;19;20015;-66
2022/12/01 01:28:00;;;;;;;84.18;27.95;;;7.10;90.00;;;;;;9181853;19;20060;-68
2022/12/01 01:31:07;;;;;;;91.53;26.75;;;7.10;90.00;;;;;;9182228;19;20046;-67
2022/12/01 01:34:10;;;;;;;92.25;28.33;;;7.10;90.00;;;;;;9181791;19;20025;-69
2022/12/01 01:37:16;;;;;;;94.15;27.85;;;7.10;90.00;;;;;;9182131;19;20018;-67
2022/12/01 01:40:20;;;;;;;98.72;27.25;;;7.10;90.00;;;;;;9183317;19;20015;-67
2022/12/01 01:43:41;;;;;;;85.45;26.63;;;7.10;90.00;;;;;;9178099;19;20011;-67
2022/12/01 01:46:45;;;;;;;84.85;27.92;;;7.10;90.10;;;;;;9180418;19;20525;-67
2022/12/01 01:49:49;;;;;;;93.35;28.33;;;7.10;90.00;;;;;;9180782;19;20021;-67
2022/12/01 01:53:01;;;;;;;84.07;28.40;;;7.10;90.00;;;;;;9177831;19;20914;-68
2022/12/01 01:56:07;;;;;;;87.22;28.50;;;7.10;90.00;;;;;;9181513;19;20018;-67
2022/12/01 01:59:16;;;;;;;91.35;29.15;;;7.10;90.00;;;;;;9181917;19;20030;-67
2022/12/01 02:02:20;;;;;;;86.80;28.10;;;7.10;90.00;;;;;;9180335;19;20011;-68
2022/12/01 02:05:27;;;;;;;88.80;31.42;;;7.10;90.00;;;;;;9180825;19;20007;-67
2022/12/01 02:08:36;;;;;;;82.43;28.42;;;7.10;90.00;;;;;;9182427;19;20018;-67
2022/12/01 02:12:10;;;;;;;90.32;31.10;;;7.10;90.00;;;;;;9181412;19;20042;-70
2022/12/01 02:15:23;;;;;;;97.75;30.95;;;7.10;90.00;;;;;;9180786;19;20405;-69
2022/12/01 02:18:34;;;;;;;106.18;32.70;;;7.10;90.00;;;;;;9174922;19;20026;-67
2022/12/01 02:21:56;;;;;;;96.10;31.05;;;7.10;90.00;;;;;;9178073;19;20010;-67
2022/12/01 02:25:23;;;;;;;100.50;33.30;;;7.10;90.00;;;;;;9181969;19;20014;-67
2022/12/01 02:28:47;;;;;;;105.53;31.63;;;7.10;90.00;;;;;;9180369;19;21030;-67
2022/12/01 02:31:57;;;;;;;;;;;7.10;90.00;;;;;;9179073;19;20364;-68
2022/12/01 02:35:09;;;;;;;100.75;31.23;;;7.10;90.00;;;;;;9181022;19;20222;-68
2022/12/01 02:38:19;;;;;;;92.43;31.58;;;7.10;90.00;;;;;;9181281;19;20011;-67
2022/12/01 02:41:29;;;;;;;94.15;31.85;;;7.10;90.00;;;;;;9179850;19;20465;-68
2022/12/01 02:44:37;;;;;;;87.90;29.67;;;7.10;90.00;;;;;;9180451;19;20022;-67
2022/12/01 02:47:45;;;;;;;98.72;33.10;;;7.10;90.00;;;;;;9178639;19;20059;-67
2022/12/01 02:50:50;;;;;;;90.30;30.40;;;7.10;90.00;;;;;;9180052;19;20021;-67
2022/12/01 02:53:56;;;;;;;95.90;30.05;;;7.10;90.00;;;;;;9178957;19;20018;-67
2022/12/01 02:56:59;;;;;;;85.18;29.10;;;7.10;90.00;;;;;;9180591;19;20021;-67
2022/12/01 03:00:03;;;;;;;;;;;7.10;90.00;;;;;;9180528;19;20575;-68
2022/12/01 03:03:27;;;;;;;83.47;29.00;;;7.10;90.00;;;;;;9176960;19;19917;-67
2022/12/01 03:06:43;;;;;;;83.85;28.70;;;7.10;90.00;;;;;;9177669;19;20042;-67
2022/12/01 03:09:56;;;;;;;78.90;28.35;;;7.10;90.00;;;;;;9178860;19;20472;-68
2022/12/01 03:13:08;;;;;;;79.43;28.10;;;7.10;90.00;;;;;;9178930;19;20394;-69
2022/12/01 03:16:17;;;;;;;75.15;28.65;;;7.10;90.00;;;;;;9179334;19;20015;-68
2022/12/01 03:19:32;;;;;;;78.30;30.15;;;7.10;90.00;;;;;;9174359;19;20018;-68
2022/12/01 03:22:40;;;;;;;72.30;29.45;;;7.10;90.00;;;;;;9178317;19;20038;-67
2022/12/01 03:25:48;;;;;;;70.20;27.42;;;7.10;90.00;;;;;;9179582;19;20014;-68
2022/12/01 03:28:56;;;;;;;80.65;29.38;;;7.10;90.00;;;;;;9174764;19;20478;-67
2022/12/01 03:32:04;;;;;;;72.10;28.00;;;7.10;90.00;;;;;;9178144;19;20022;-69
2022/12/01 03:35:16;;;;;;;74.78;27.55;;;7.10;90.00;;;;;;9178302;19;20042;-68
2022/12/01 03:38:25;;;;;;;82.47;29.58;;;7.10;90.00;;;;;;9179164;19;20046;-67
2022/12/01 03:41:34;;;;;;;68.15;27.15;;;7.10;90.00;;;;;;9178640;19;20027;-68
2022/12/01 03:44:43;;;;;;;74.35;27.92;;;7.10;90.00;;;;;;9177075;19;20029;-68
2022/12/01 03:47:48;;;;;;;74.20;28.88;;;7.10;89.90;;;;;;9175872;19;20022;-67
2022/12/01 03:51:03;;;;;;;82.55;29.38;;;7.10;89.90;;;;;;9175535;19;20364;-68
2022/12/01 03:54:13;;;;;;;86.97;29.60;;;7.10;89.90;;;;;;9177008;19;20014;-67
2022/12/01 03:57:19;;;;;;;86.70;29.85;;;7.10;89.90;;;;;;9177319;19;20023;-67
2022/12/01 04:00:24;;;;;;;76.38;29.05;;;7.10;89.80;;;;;;9178074;19;20010;-69
2022/12/01 04:03:28;;;;;;;76.85;29.10;;;7.10;89.90;;;;;;9175119;19;20006;-68
2022/12/01 04:06:33;;;;;;;81.25;29.35;;;7.10;89.80;;;;;;9177745;19;20037;-67
2022/12/01 04:09:37;;;;;;;83.13;29.25;;;7.10;89.80;;;;;;9177178;19;20516;-67
2022/12/01 04:12:41;;;;;;;81.88;28.48;;;7.10;89.90;;;;;;9176983;19;20024;-67
2022/12/01 04:15:45;;;;;;;89.30;31.30;;;7.10;89.80;;;;;;9176851;19;20015;-68
2022/12/01 04:18:49;;;;;;;86.03;29.88;;;7.10;89.80;;;;;;9171759;19;20019;-67
2022/12/01 04:21:54;;;;;;;85.65;29.80;;;7.00;89.80;;;;;;9175073;19;20027;-67
2022/12/01 04:24:58;;;;;;;87.40;30.48;;;7.10;89.80;;;;;;9173519;19;20035;-67
2022/12/01 04:28:02;;;;;;;87.50;31.20;;;7.10;89.80;;;;;;9175881;19;20014;-67
2022/12/01 04:31:06;;;;;;;91.57;32.05;;;7.10;89.90;;;;;;9176332;19;20022;-67
2022/12/01 04:34:11;;;;;;;86.65;29.55;;;7.10;89.80;;;;;;9175428;19;20393;-68
2022/12/01 04:37:17;;;;;;;87.45;28.90;;;7.10;89.80;;;;;;9174659;19;20022;-68
2022/12/01 04:40:21;;;;;;;83.65;29.00;;;7.10;89.80;;;;;;9176542;19;20014;-68
2022/12/01 04:43:25;;;;;;;;;;;7.10;89.80;;;;;;9175290;19;20348;-68
2022/12/01 04:46:28;;;;;;;90.47;29.75;;;7.10;89.80;;;;;;9182293;19;19918;-69
2022/12/01 04:49:33;;;;;;;97.53;32.70;;;7.10;89.70;;;;;;9184368;19;20498;-68
2022/12/01 04:52:40;;;;;;;92.80;29.83;;;7.10;89.70;;;;;;9182894;19;20018;-67
2022/12/01 04:55:43;;;;;;;95.60;31.67;;;7.10;89.70;;;;;;9183147;19;20023;-66
2022/12/01 04:58:47;;;;;;;105.07;29.95;;;7.00;89.70;;;;;;9184030;19;20029;-67
2022/12/01 05:01:51;;;;;;;90.80;30.38;;;7.10;89.80;;;;;;9183504;19;20484;-68
2022/12/01 05:04:55;;;;;;;96.15;32.20;;;7.00;89.80;;;;;;9182024;19;20018;-67
2022/12/01 05:08:01;;;;;;;96.22;31.77;;;7.00;89.70;;;;;;9183766;19;20042;-67
2022/12/01 05:11:06;;;;;;;102.40;32.70;;;7.00;89.70;;;;;;9183983;19;20010;-69
2022/12/01 05:14:10;;;;;;;94.97;32.05;;;7.00;89.80;;;;;;9183379;19;20022;-68
2022/12/01 05:17:14;;;;;;;89.32;30.70;;;7.00;89.80;;;;;;9181312;19;20014;-67
2022/12/01 05:23:40;;;;;;;97.25;33.03;;;7.00;89.80;;;;;;9180660;19;20025;-67
2022/12/01 05:26:45;;;;;;;99.43;32.67;;;7.00;89.80;;;;;;9182599;19;20380;-67
2022/12/01 05:29:48;;;;;;;107.40;34.03;;;7.00;89.80;;;;;;9182653;19;20014;-67
2022/12/01 05:32:53;;;;;;;104.13;33.63;;;7.00;89.70;;;;;;9182228;19;20019;-68
2022/12/01 05:35:57;;;;;;;90.05;31.30;;;7.00;89.70;;;;;;9181979;19;20055;-68
2022/12/01 05:39:02;;;;;;;100.45;33.60;;;7.00;89.80;;;;;;9183391;19;20367;-67
2022/12/01 05:42:06;;;;;;;104.20;32.60;;;7.00;89.80;;;;;;9181506;19;20389;-67
2022/12/01 05:45:11;;;;;;;110.88;33.92;;;7.00;89.70;;;;;;9181723;19;20531;-68
2022/12/01 05:48:15;;;;;;;108.97;34.55;;;7.00;89.70;;;;;;9181827;19;20031;-68
2022/12/01 05:51:19;;;;;;;115.93;36.15;;;7.00;89.70;;;;;;9181983;19;20019;-69
2022/12/01 05:54:24;;;;;;;123.47;38.13;;;7.00;89.70;;;;;;9182414;19;20018;-68
2022/12/01 05:57:28;;;;;;;121.45;37.15;;;7.00;89.70;;;;;;9176857;19;20019;-67
2022/12/01 06:00:32;;;;;;;115.25;36.38;;;7.00;89.70;;;;;;9182537;19;20086;-66
2022/12/01 06:03:35;;;;;;;111.05;35.85;;;7.00;89.70;;;;;;9179529;19;20022;-66
2022/12/01 06:06:39;;;;;;;121.38;37.90;;;7.00;89.70;;;;;;9179878;19;20018;-67
2022/12/01 06:09:45;;;;;;;110.30;36.42;;;7.00;89.60;;;;;;9181846;19;20029;-66
2022/12/01 06:12:49;;;;;;;120.93;36.83;;;7.00;89.70;;;;;;9179842;19;20015;-69
2022/12/01 06:15:57;;;;;;;;;;;7.00;89.60;;;;;;9179115;19;20014;-68
2022/12/01 06:19:01;;;;;;;128.38;34.95;;;7.00;89.70;;;;;;9174990;19;20009;-67
2022/12/01 06:22:05;;;;;;;105.93;34.88;;;7.00;89.60;;;;;;9179418;19;20041;-67
2022/12/01 06:25:11;;;;;;;106.15;32.17;;;7.00;89.60;;;;;;9181702;19;20464;-67
2022/12/01 06:28:16;;;;;;;96.40;31.38;;;6.90;89.60;;;;;;9180783;19;20026;-67
2022/12/01 06:31:20;;;;;;;96.65;33.83;;;6.90;89.70;;;;;;9178652;19;20014;-68
2022/12/01 06:34:24;;;;;;;;;;;6.90;89.60;;;;;;9181456;19;20014;-67
2022/12/01 06:37:28;;;;;;;101.80;30.45;;;6.90;89.60;;;;;;9180451;19;19922;-66
2022/12/01 06:40:34;;;;;;;95.07;32.35;;;6.90;89.70;;;;;;9180639;19;20006;-67
2022/12/01 06:43:38;;;;;;;88.85;30.05;;;6.90;89.70;;;;;;9177278;19;20022;-67
2022/12/01 06:46:42;;;;;;;91.85;32.22;;;6.90;89.70;;;;;;9180947;19;20022;-67
2022/12/01 06:49:46;;;;;;;104.13;31.80;;;6.90;89.70;;;;;;9180559;19;20019;-68
2022/12/01 06:52:51;;;;;;;86.45;31.20;;;6.90;89.70;;;;;;9177670;19;20018;-67
2022/12/01 06:56:00;;;;;;;99.88;31.05;;;6.90;89.70;;;;;;9179758;19;20508;-67
2022/12/01 06:59:04;;;;;;;94.22;31.58;;;6.90;89.70;;;;;;9177830;19;20027;-67
2022/12/01 07:02:11;;;;;;;93.70;30.27;;;6.90;89.70;;;;;;9179891;19;20015;-67
2022/12/01 07:05:15;;;;;;;85.45;29.38;;;6.90;89.60;;;;;;9179905;19;20010;-68
2022/12/01 07:08:19;;;;;;;94.65;31.52;;;6.90;89.60;;;;;;9175909;19;20023;-66
2022/12/01 07:11:25;;;;;;;84.43;29.25;;;6.90;89.60;;;;;;9177963;19;20025;-67
2022/12/01 07:14:30;;;;;;;87.55;30.13;;;6.90;89.60;;;;;;9179363;19;20048;-68
2022/12/01 07:17:34;;;;;;;94.22;31.98;;;6.90;89.50;;;;;;9179436;19;20856;-66
2022/12/01 07:20:38;;;;;;;83.63;30.25;;;7.00;89.60;;;;;;9173746;19;20461;-67
2022/12/01 07:23:42;;;;;;;;;;;6.90;89.60;;;;;;9172136;19;20018;-67
2022/12/01 07:26:47;;;;;;;93.07;30.88;;;6.90;89.50;;;;;;9171517;19;19938;-68
2022/12/01 07:29:51;;;;;;;96.05;31.67;;;7.00;89.50;;;;;;9168381;19;20022;-67
2022/12/01 07:32:55;;;;;;;87.75;30.40;;;7.00;89.50;;;;;;9172513;19;20011;-67
2022/12/01 07:36:00;;;;;;;86.95;32.33;;;7.00;89.60;;;;;;9172212;19;20475;-66
2022/12/01 07:39:06;;;;;;;91.63;30.38;;;7.00;89.60;;;;;;9171221;19;20492;-70
2022/12/01 07:42:12;;;;;;;83.30;28.73;;;7.00;89.50;;;;;;9169579;19;20377;-69
2022/12/01 07:45:15;;;;;;;79.72;29.40;;;7.00;89.60;;;;;;9170904;19;20018;-67
2022/12/01 07:48:19;;;;;;;;;;;7.00;89.60;;;;;;9173890;19;20018;-66
2022/12/01 07:51:24;;;;;;;85.25;28.77;;;7.00;89.50;;;;;;9166555;19;19922;-67
2022/12/01 07:54:28;;;;;;;95.85;30.30;;;7.00;89.50;;;;;;9164677;19;20023;-66
2022/12/01 07:57:34;;;;;;;88.88;29.63;;;7.00;89.40;;;;;;9167621;19;20341;-67
2022/12/01 08:00:37;;;;;;;76.53;28.58;;;7.00;89.40;;;;;;9155073;19;20384;-68
2022/12/01 08:03:45;;;;;;;92.88;30.38;;;7.00;89.50;;;;;;9162378;19;20548;-68
2022/12/01 08:06:48;;;;;;;93.15;30.50;;;7.00;89.50;;;;;;9162412;19;20060;-67
2022/12/01 08:09:55;;;;;;;82.72;28.10;;;7.00;89.50;;;;;;9156074;19;20037;-69
2022/12/01 08:13:01;;;;;;;80.72;27.67;;;7.00;89.40;;;;;;9170364;19;20019;-67
2022/12/01 08:16:05;;;;;;;80.55;28.25;;;7.00;89.50;;;;;;9174001;19;20113;-67
2022/12/01 08:19:11;;;;;;;78.88;27.20;;;7.00;89.50;;;;;;9161263;19;20042;-70
2022/12/01 08:22:15;;;;;;;83.28;28.50;;;7.00;89.40;;;;;;9175410;19;20072;-70
2022/12/01 08:25:19;;;;;;;80.43;28.25;;;7.00;89.50;;;;;;9174218;19;20027;-69
2022/12/01 08:28:25;;;;;;;85.30;28.02;;;7.00;89.50;;;;;;9174908;19;20015;-70
2022/12/01 08:31:30;;;;;;;86.57;29.23;;;7.00;89.50;;;;;;9173724;19;20018;-70
2022/12/01 08:34:37;;;;;;;87.82;30.58;;;7.00;89.50;;;;;;9174556;19;20035;-70
2022/12/01 08:37:41;;;;;;;82.07;29.75;;;7.10;89.50;;;;;;9172714;19;20438;-70
2022/12/01 08:40:45;;;;;;;96.07;30.45;;;7.00;89.40;;;;;;9172892;19;20019;-70
2022/12/01 08:43:50;;;;;;;;;;;7.00;89.40;;;;;;9176273;19;20022;-70
2022/12/01 08:47:03;;;;;;;80.18;27.60;;;7.00;89.40;;;;;;9174763;19;19943;-73
2022/12/01 08:50:09;;;;;;;81.00;30.08;;;7.00;89.40;;;;;;9176308;19;20018;-69
2022/12/01 08:53:13;;;;;;;87.78;30.45;;;7.10;89.50;;;;;;9175230;19;20006;-70
2022/12/01 08:56:19;;;;;;;95.15;30.15;;;7.10;89.50;;;;;;9180606;19;20344;-72
2022/12/01 08:59:24;;;;;;;83.78;29.85;;;7.00;89.40;;;;;;9179118;19;20022;-71
2022/12/01 09:02:28;;;;;;;83.88;30.35;;;7.00;89.40;;;;;;9177756;19;20030;-70
2022/12/01 09:05:32;;;;;;;89.80;29.48;;;7.10;89.50;;;;;;9173991;19;20025;-70
2022/12/01 09:08:37;;;;;;;95.35;32.15;;;7.10;89.50;;;;;;9172364;19;20023;-70
2022/12/01 09:11:42;;;;;;;85.10;30.00;;;7.10;89.50;;;;;;9178553;19;20019;-70
2022/12/01 09:14:48;;;;;;;92.10;31.55;;;7.10;89.50;;;;;;9182306;19;20029;-69
2022/12/01 09:17:52;;;;;;;89.90;31.33;;;7.10;89.50;;;;;;9180361;19;20503;-69
2022/12/01 09:20:57;;;;;;;91.28;31.75;;;7.10;89.50;;;;;;9174793;19;20025;-69
2022/12/01 09:24:02;;;;;;;88.78;29.63;;;7.10;89.50;;;;;;9177902;19;20490;-71
2022/12/01 09:27:06;;;;;;;89.43;30.15;;;7.10;89.50;;;;;;9180621;19;20400;-71
2022/12/01 09:30:13;;;;;;;82.50;29.33;;;7.10;89.50;;;;;;9177285;19;20037;-70
2022/12/01 09:33:17;;;;;;;96.45;31.50;;;7.10;89.50;;;;;;9177196;19;20019;-70
2022/12/01 09:36:21;;;;;;;;;;;7.10;89.50;;;;;;9177579;19;20029;-70
2022/12/01 09:39:25;;;;;;;98.67;30.37;;;7.20;89.50;;;;;;9177187;19;19931;-69
2022/12/01 09:42:28;;;;;;;;;;;7.20;89.50;;;;;;9179316;19;20775;-69
2022/12/01 09:45:46;;;;;;;88.15;30.35;;;7.20;89.50;;;;;;9183404;19;19919;-70
2022/12/01 09:48:52;;;;;;;83.47;27.90;;;7.20;89.50;;;;;;9182183;19;20014;-70
2022/12/01 09:51:56;;;;;;;86.68;29.25;;;7.20;89.50;;;;;;9179499;19;20014;-69
2022/12/01 09:55:01;;;;;;;81.90;32.22;;;7.20;89.50;;;;;;9180922;19;20014;-69
2022/12/01 09:58:06;;;;;;;91.03;30.92;;;7.20;89.50;;;;;;9182195;19;20396;-70
2022/12/01 10:01:17;;;;;;;85.80;29.67;;;7.30;89.50;;;;;;9179323;19;20358;-69
2022/12/01 10:04:30;;;;;;;94.55;29.38;;;7.30;89.50;;;;;;9179674;19;20026;-70
2022/12/01 10:07:38;;;;;;;82.13;30.00;;;7.30;89.50;;;;;;9181737;19;20010;-69
2022/12/01 10:10:47;;;;;;;89.80;30.70;;;7.30;89.40;;;;;;9182666;19;20811;-70
2022/12/01 10:13:51;;;;;;;85.25;29.15;;;7.40;89.50;;;;;;9182523;19;20011;-69
2022/12/01 10:17:05;;;;;;;79.28;28.95;;;7.40;89.50;;;;;;9180298;19;20011;-68
2022/12/01 10:20:16;;;;;;;83.65;29.67;;;7.40;89.40;;;;;;9177593;19;20018;-69
2022/12/01 10:23:45;;;;;;;73.93;28.15;;;7.40;90.00;;;;;;9180512;19;20018;-69
2022/12/01 10:26:56;;;;;;;81.60;27.40;;;7.40;89.30;;;;;;9181504;19;20015;-69
2022/12/01 10:30:05;;;;;;;79.78;27.73;;;7.40;89.30;;;;;;9181824;19;20051;-69
2022/12/01 10:33:21;;;;;;;80.68;27.38;;;7.50;89.40;;;;;;9182049;19;20038;-70
2022/12/01 10:36:26;;;;;;;67.40;28.00;;;7.50;89.40;;;;;;9181894;19;20350;-69
2022/12/01 10:39:36;;;;;;;75.90;26.75;;;7.50;89.30;;;;;;9181431;19;20043;-70
2022/12/01 10:42:43;;;;;;;74.30;26.45;;;7.50;89.30;;;;;;9176668;19;20087;-69
2022/12/01 10:45:47;;;;;;;82.15;29.30;;;7.50;89.30;;;;;;9180463;19;20018;-70
2022/12/01 10:48:58;;;;;;;77.72;28.27;;;7.50;89.30;;;;;;9177266;19;20363;-71
2022/12/01 10:52:02;;;;;;;71.07;27.15;;;7.50;89.30;;;;;;9174346;19;20341;-70
2022/12/01 10:55:27;;;;;;;76.50;26.83;;;7.50;89.90;;;;;;9176815;19;20014;-70
2022/12/01 10:58:33;;;;;;;73.15;26.77;;;7.60;89.30;;;;;;9172570;19;20046;-70
2022/12/01 11:01:37;;;;;;;75.72;28.75;;;7.60;89.20;;;;;;9176814;19;20021;-69
2022/12/01 11:04:46;;;;;;;74.97;26.98;;;7.60;89.20;;;;;;9177345;19;20006;-68
2022/12/01 11:07:51;;;;;;;75.03;27.88;;;7.60;89.10;;;;;;9180713;19;20039;-69
2022/12/01 11:10:55;;;;;;;70.38;26.63;;;7.60;89.10;;;;;;9180531;19;20082;-69
2022/12/01 11:14:02;;;;;;;70.97;27.52;;;7.60;89.10;;;;;;9180618;19;20026;-69
2022/12/01 11:17:34;;;;;;;72.25;27.23;;;7.70;89.10;;;;;;9179938;19;20475;-69
2022/12/01 11:20:41;;;;;;;77.53;27.92;;;7.70;89.10;;;;;;9172098;19;20974;-70
2022/12/01 11:23:47;;;;;;;74.43;26.98;;;7.70;89.10;;;;;;9178291;19;20015;-69
2022/12/01 11:26:51;;;;;;;82.25;29.10;;;7.70;89.00;;;;;;9177692;19;20022;-70
2022/12/01 11:29:58;;;;;;;79.47;30.15;;;7.70;89.00;;;;;;9178051;19;20010;-69
2022/12/01 11:33:05;;;;;;;74.35;28.38;;;7.70;89.00;;;;;;9178340;19;20018;-70
2022/12/01 11:36:11;;;;;;;73.63;28.30;;;7.70;89.00;;;;;;9174204;19;20014;-69
2022/12/01 11:39:26;;;;;;;75.13;27.98;;;7.80;89.00;;;;;;9171687;19;20199;-69
2022/12/01 11:42:33;;;;;;;73.90;29.83;;;7.70;88.90;;;;;;9171932;19;20014;-70
2022/12/01 11:45:40;;;;;;;68.05;26.52;;;7.80;89.00;;;;;;9172234;19;20429;-68
2022/12/01 11:48:59;;;;;;;76.30;28.17;;;7.80;89.00;;;;;;9177003;19;20018;-69
2022/12/01 11:52:18;;;;;;;79.97;28.83;;;7.80;88.90;;;;;;9171047;19;20042;-70
2022/12/01 11:55:24;;;;;;;71.15;27.33;;;7.80;88.80;;;;;;9171949;19;20014;-72
2022/12/01 11:58:28;;;;;;;60.53;25.00;;;7.80;88.90;;;;;;9176239;19;20118;-70
2022/12/01 12:01:46;;;;;;;68.80;26.77;;;7.90;88.80;;;;;;9176879;19;20026;-69
2022/12/01 12:05:27;;;;;;;64.25;24.45;;;7.80;88.70;;;;;;9176794;19;20038;-70
2022/12/01 12:08:46;;;;;;;62.03;25.55;;;7.90;88.70;;;;;;9177852;19;20015;-70
2022/12/01 12:11:57;;;;;;;63.53;24.67;;;7.80;88.70;;;;;;9179045;19;20034;-70
2022/12/01 12:15:12;;;;;;;63.53;23.50;;;7.80;88.70;;;;;;9179134;19;20021;-69
2022/12/01 12:18:42;;;;;;;61.70;24.20;;;7.90;88.70;;;;;;9174746;19;20019;-70
2022/12/01 12:21:56;;;;;;;60.33;23.73;;;7.90;88.80;;;;;;9178800;19;20015;-70
2022/12/01 12:25:21;;;;;;;60.72;23.23;;;7.80;88.60;;;;;;9175901;19;20011;-69
2022/12/01 12:28:42;;;;;;;60.47;25.67;;;7.80;88.60;;;;;;9178710;19;20484;-69
2022/12/01 12:32:01;;;;;;;72.20;26.67;;;7.90;88.70;;;;;;9176540;19;20022;-70
2022/12/01 12:35:15;;;;;;;58.65;25.25;;;7.90;88.70;;;;;;9178994;19;20043;-72
2022/12/01 12:38:43;;;;;;;70.50;25.45;;;7.90;88.60;;;;;;9178464;19;20026;-70
2022/12/01 12:41:54;;;;;;;58.70;24.60;;;7.80;88.50;;;;;;9177713;19;20007;-70
2022/12/01 12:45:04;;;;;;;59.85;23.95;;;7.90;88.60;;;;;;9176563;19;20038;-70
2022/12/01 12:48:23;;;;;;;65.75;24.80;;;7.80;88.50;;;;;;9178381;19;20394;-69
2022/12/01 12:51:33;;;;;;;54.80;24.00;;;7.80;88.50;;;;;;9176206;19;20048;-70
2022/12/01 12:54:45;;;;;;;60.40;24.70;;;7.80;88.40;;;;;;9173837;19;20146;-70
2022/12/01 12:57:56;;;;;;;65.43;26.10;;;7.80;88.50;;;;;;9178133;19;20015;-70
2022/12/01 13:01:04;;;;;;;63.25;24.33;;;7.80;88.50;;;;;;9176303;19;20044;-70
2022/12/01 13:04:14;;;;;;;61.83;25.20;;;7.80;88.50;;;;;;9174650;19;20373;-70
2022/12/01 13:07:32;;;;;;;66.22;26.15;;;7.80;88.40;;;;;;9175527;19;20018;-69
2022/12/01 13:10:41;;;;;;;67.63;25.63;;;7.80;88.40;;;;;;9175132;19;20022;-70
2022/12/01 13:13:56;;;;;;;64.65;25.85;;;7.70;89.00;;;;;;9178042;19;20018;-70
2022/12/01 13:17:08;;;;;;;61.22;25.00;;;7.70;88.40;;;;;;9176382;19;20019;-70
2022/12/01 13:20:17;;;;;;;57.25;24.83;;;7.70;88.40;;;;;;9170809;19;20044;-69
2022/12/01 13:23:21;;;;;;;60.70;24.77;;;7.70;88.50;;;;;;9177073;19;20015;-71
2022/12/01 13:26:25;;;;;;;59.75;25.33;;;7.70;88.40;;;;;;9175931;19;20029;-70
2022/12/01 13:29:34;;;;;;;67.05;26.38;;;7.70;88.40;;;;;;9174026;19;20026;-70
2022/12/01 13:32:41;;;;;;;59.60;24.30;;;7.70;88.40;;;;;;9170127;19;20011;-69
2022/12/01 13:35:45;;;;;;;63.47;26.80;;;7.70;88.40;;;;;;9172885;19;20018;-72
2022/12/01 13:38:55;;;;;;;;;;;7.70;88.40;;;;;;9172790;19;20010;-69
2022/12/01 13:42:03;;;;;;;54.20;23.85;;;7.70;88.40;;;;;;9172272;19;20006;-70
2022/12/01 13:45:19;;;;;;;62.40;25.70;;;7.70;88.40;;;;;;9172602;19;20022;-70
2022/12/01 13:48:31;;;;;;;61.67;24.60;;;7.70;88.40;;;;;;9176836;19;20704;-70
2022/12/01 13:52:05;;;;;;;59.30;23.27;;;7.70;88.30;;;;;;9175221;19;20018;-70
2022/12/01 13:55:26;;;;;;;57.90;23.92;;;7.60;88.20;;;;;;9175511;19;20499;-70
2022/12/01 13:58:47;;;;;;;60.80;23.10;;;7.60;88.30;;;;;;9176410;19;20711;-70
2022/12/01 14:02:14;;;;;;;57.25;23.40;;;7.60;88.20;;;;;;9172746;19;20048;-70
2022/12/01 14:05:46;;;;;;;54.80;23.15;;;7.60;88.20;;;;;;9168631;19;20579;-70
2022/12/01 14:08:51;;;;;;;56.03;23.15;;;7.60;88.30;;;;;;9171213;19;20026;-69
2022/12/01 14:11:58;;;;;;;64.32;23.33;;;7.60;88.30;;;;;;9170132;19;20487;-70
2022/12/01 14:15:04;;;;;;;59.50;24.08;;;7.50;88.20;;;;;;9169956;19;20014;-71
2022/12/01 14:18:32;;;;;;;60.15;23.85;;;7.50;88.20;;;;;;9164638;19;20018;-70
2022/12/01 14:21:43;;;;;;;69.88;25.20;;;7.50;88.20;;;;;;9172146;19;20010;-70
2022/12/01 14:24:53;;;;;;;61.60;25.98;;;7.50;88.30;;;;;;9172052;19;20018;-70
2022/12/01 14:27:59;;;;;;;69.88;25.77;;;7.50;88.30;;;;;;9174073;19;20048;-71
2022/12/01 14:31:06;;;;;;;73.20;25.77;;;7.40;88.20;;;;;;9172151;19;20183;-70
2022/12/01 14:34:17;;;;;;;68.45;25.48;;;7.40;88.30;;;;;;9175242;19;20019;-71
2022/12/01 14:37:26;;;;;;;71.47;27.20;;;7.40;88.30;;;;;;9173383;19;20011;-70
2022/12/01 14:40:38;;;;;;;77.80;28.83;;;7.40;88.30;;;;;;9213156;19;20051;-68
2022/12/01 14:47:08;;;;;;;87.53;29.60;;;7.40;88.40;;;;;;9215343;19;20019;-69
2022/12/01 14:50:17;;;;;;;91.25;32.45;;;7.40;88.40;;;;;;9214436;19;20035;-71
2022/12/01 14:53:28;;;;;;;90.65;31.40;;;7.40;88.40;;;;;;9210794;19;20037;-70
2022/12/01 14:56:35;;;;;;;91.13;30.58;;;7.40;88.40;;;;;;9214134;19;20018;-69
2022/12/01 14:59:39;;;;;;;89.47;32.35;;;7.40;88.30;;;;;;9212226;19;20045;-70
2022/12/01 15:02:45;;;;;;;106.65;32.25;;;7.40;88.30;;;;;;9212092;19;20018;-70
2022/12/01 15:05:49;;;;;;;96.50;33.50;;;7.30;88.20;;;;;;9213332;19;20473;-69
2022/12/01 15:09:07;;;;;;;97.13;32.15;;;7.30;88.30;;;;;;9213042;19;20025;-69
2022/12/01 15:12:33;;;;;;;98.82;33.33;;;7.30;88.30;;;;;;9215248;19;20010;-70
2022/12/01 15:15:37;;;;;;;100.05;33.72;;;7.30;88.30;;;;;;9215322;19;20007;-70
2022/12/01 15:18:40;;;;;;;;;;;7.30;88.30;;;;;;9206306;19;20310;-70
2022/12/01 15:21:44;;;;;;;80.70;25.30;;;7.30;88.30;;;;;;9213978;19;19941;-69
2022/12/01 15:24:48;;;;;;;105.82;33.80;;;7.30;88.30;;;;;;9214312;19;20498;-70
2022/12/01 15:28:11;;;;;;;101.15;34.88;;;7.30;88.30;;;;;;9212305;19;20022;-69
2022/12/01 15:31:15;;;;;;;97.32;33.72;;;7.30;88.30;;;;;;9213457;19;20463;-69
2022/12/01 15:34:23;;;;;;;122.05;36.28;;;7.30;88.30;;;;;;9213426;19;20078;-69
2022/12/01 15:37:29;;;;;;;116.53;37.33;;;7.30;88.40;;;;;;9211904;19;20093;-69
2022/12/01 15:40:33;;;;;;;113.78;37.75;;;7.30;88.30;;;;;;9211147;19;20018;-69
2022/12/01 15:44:02;;;;;;;109.32;35.97;;;7.30;88.30;;;;;;9211655;19;20014;-70
2022/12/01 15:47:31;;;;;;;110.43;36.67;;;7.30;88.30;;;;;;9213352;19;20021;-69
2022/12/01 15:50:37;;;;;;;116.53;34.65;;;7.30;88.30;;;;;;9191896;19;20021;-70
2022/12/01 15:53:52;;;;;;;;;;;7.30;88.30;;;;;;9174238;19;20348;-70
2022/12/01 15:56:59;;;;;;;119.57;37.55;;;7.30;88.30;;;;;;9174681;19;19927;-69
2022/12/01 16:00:05;;;;;;;108.35;37.30;;;7.30;88.20;;;;;;9170886;19;20033;-69
2022/12/01 16:03:16;;;;;;;115.40;35.92;;;7.30;88.20;;;;;;9170352;19;20032;-70
2022/12/01 16:06:21;;;;;;;104.55;34.70;;;7.30;88.30;;;;;;9170746;19;20089;-70
2022/12/01 16:09:29;;;;;;;116.22;37.70;;;7.30;88.30;;;;;;9172508;19;20086;-70
2022/12/01 16:12:35;;;;;;;115.53;37.53;;;7.30;88.30;;;;;;9171747;19;20023;-70
2022/12/01 16:15:45;;;;;;;112.13;38.65;;;7.30;88.30;;;;;;9176237;19;20019;-69
2022/12/01 16:18:54;;;;;;;109.45;39.60;;;7.30;88.20;;;;;;9168108;19;20142;-68